Time;durP1;ratioP1;P1;durP2;ratioP2;P2;SDS_P1;SDS_P2;PMS_P1;PMS_P2;Temp;Humidity;BMP_temperature;BMP_pressure;BME280_temperature;BME280_humidity;BME280_pressure;Samples;Min_cycle;Max_cycle;Signal;HPM_P1;HPM_P2
2022/07/07 00:01:33;;;;;;;4.67;1.57;;;;;;;;;;7370364;19;20173;-79
2022/07/07 00:04:00;;;;;;;4.97;1.67;;;;;;;;;;7377580;19;20151;-78
2022/07/07 00:06:27;;;;;;;3.93;1.40;;;;;;;;;;7373301;19;20148;-78
2022/07/07 00:08:54;;;;;;;1.70;1.40;;;;;;;;;;7370044;19;20157;-78
2022/07/07 00:11:20;;;;;;;3.47;1.60;;;;;;;;;;7371574;19;20176;-78
2022/07/07 00:13:46;;;;;;;2.17;1.40;;;;;;;;;;7375186;19;20133;-78
2022/07/07 00:16:11;;;;;;;2.23;1.50;;;;;;;;;;7376628;19;20155;-78
2022/07/07 00:18:36;;;;;;;1.50;1.27;;;;;;;;;;7377096;19;20155;-78
2022/07/07 00:21:02;;;;;;;1.60;1.50;;;;;;;;;;7388490;19;20153;-79
2022/07/07 00:23:27;;;;;;;3.30;1.73;;;;;;;;;;7400676;19;20145;-79
2022/07/07 00:25:53;;;;;;;2.70;1.30;;;;;;;;;;7400544;19;20125;-78
2022/07/07 00:28:18;;;;;;;4.83;1.63;;;;;;;;;;7403486;19;20130;-78
2022/07/07 00:30:44;;;;;;;2.80;1.60;;;;;;;;;;7381111;19;20204;-77
2022/07/07 00:33:09;;;;;;;3.33;1.50;;;;;;;;;;7373057;19;20197;-78
2022/07/07 00:35:34;;;;;;;4.97;1.50;;;;;;;;;;7382537;19;20141;-78
2022/07/07 00:38:00;;;;;;;2.90;1.50;;;;;;;;;;7387608;19;20400;-78
2022/07/07 00:40:25;;;;;;;4.90;1.60;;;;;;;;;;7392688;19;20160;-78
2022/07/07 00:42:51;;;;;;;3.43;1.33;;;;;;;;;;7400669;19;20140;-78
2022/07/07 00:45:16;;;;;;;3.27;1.50;;;;;;;;;;7397922;19;20129;-78
2022/07/07 00:47:41;;;;;;;2.80;1.50;;;;;;;;;;7383205;19;20151;-78
2022/07/07 00:50:08;;;;;;;1.73;1.47;;;;;;;;;;7372630;19;20137;-78
2022/07/07 00:52:33;;;;;;;2.13;1.73;;;;;;;;;;7368904;19;20523;-79
2022/07/07 00:55:00;;;;;;;2.90;1.50;;;;;;;;;;7375969;19;20160;-79
2022/07/07 00:57:25;;;;;;;1.80;1.47;;;;;;;;;;7380566;19;20137;-79
2022/07/07 00:59:51;;;;;;;2.60;1.80;;;;;;;;;;7381670;19;20207;-80
2022/07/07 01:02:16;;;;;;;2.40;1.40;;;;;;;;;;7387392;19;20173;-79
2022/07/07 01:04:42;;;;;;;3.53;1.70;;;;;;;;;;7395705;19;20152;-79
2022/07/07 01:07:07;;;;;;;1.67;1.57;;;;;;;;;;7390581;19;20536;-79
2022/07/07 01:09:34;;;;;;;2.13;1.50;;;;;;;;;;7387930;19;20124;-79
2022/07/07 01:11:59;;;;;;;3.43;1.40;;;;;;;;;;7388087;19;20169;-80
2022/07/07 01:14:25;;;;;;;1.73;1.47;;;;;;;;;;7397115;19;20128;-79
2022/07/07 01:16:52;;;;;;;1.70;1.60;;;;;;;;;;7392067;19;20139;-80
2022/07/07 01:19:18;;;;;;;1.90;1.50;;;;;;;;;;7398878;19;20144;-80
2022/07/07 01:21:57;;;;;;;3.73;1.67;;;;;;;;;;7395217;19;20601;-80
2022/07/07 01:24:25;;;;;;;3.20;1.60;;;;;;;;;;7391795;19;20135;-79
2022/07/07 01:27:06;;;;;;;3.50;1.80;;;;;;;;;;7385716;19;20164;-80
2022/07/07 01:29:40;;;;;;;3.33;1.40;;;;;;;;;;7386449;19;20141;-80
2022/07/07 01:32:08;;;;;;;3.57;1.67;;;;;;;;;;7385951;19;20246;-80
2022/07/07 01:34:34;;;;;;;3.00;1.50;;;;;;;;;;7390899;19;20158;-80
2022/07/07 01:36:59;;;;;;;3.50;1.60;;;;;;;;;;7390958;19;20129;-79
2022/07/07 01:39:25;;;;;;;5.07;2.63;;;;;;;;;;7389700;19;20458;-80
2022/07/07 01:41:50;;;;;;;4.37;1.53;;;;;;;;;;7392223;19;20550;-80
2022/07/07 01:44:15;;;;;;;3.43;1.60;;;;;;;;;;7398287;19;20121;-81
2022/07/07 01:46:40;;;;;;;4.57;1.50;;;;;;;;;;7398672;19;20646;-80
2022/07/07 01:49:06;;;;;;;4.23;1.80;;;;;;;;;;7395391;19;20148;-82
2022/07/07 01:51:31;;;;;;;2.93;1.53;;;;;;;;;;7398069;19;20169;-80
2022/07/07 01:53:56;;;;;;;1.60;1.50;;;;;;;;;;7392477;19;20141;-78
2022/07/07 01:56:22;;;;;;;2.13;1.50;;;;;;;;;;7393460;19;20128;-79
2022/07/07 01:58:47;;;;;;;2.43;1.53;;;;;;;;;;7394697;19;20133;-79
2022/07/07 02:01:12;;;;;;;4.03;1.67;;;;;;;;;;7387226;19;20148;-79
2022/07/07 02:03:37;;;;;;;2.00;1.60;;;;;;;;;;7389208;19;20176;-79
2022/07/07 02:06:03;;;;;;;3.63;1.73;;;;;;;;;;7388857;19;20120;-79
2022/07/07 02:08:28;;;;;;;2.07;1.70;;;;;;;;;;7385048;19;20144;-81
2022/07/07 02:13:38;;;;;;;3.53;1.80;;;;;;;;;;7386441;19;20138;-79
2022/07/07 02:16:04;;;;;;;2.17;1.60;;;;;;;;;;7391097;19;20607;-79
2022/07/07 02:18:34;;;;;;;2.53;1.33;;;;;;;;;;7385277;19;20125;-81
2022/07/07 02:20:59;;;;;;;1.93;1.73;;;;;;;;;;7389706;19;20252;-82
2022/07/07 02:23:25;;;;;;;4.93;1.70;;;;;;;;;;7393910;19;20156;-79
2022/07/07 02:25:51;;;;;;;3.37;1.60;;;;;;;;;;7394384;19;20201;-79
2022/07/07 02:28:16;;;;;;;1.87;1.60;;;;;;;;;;7389919;19;20147;-79
2022/07/07 02:30:42;;;;;;;2.30;1.60;;;;;;;;;;7386914;19;20153;-82
2022/07/07 02:33:08;;;;;;;2.17;1.50;;;;;;;;;;7389009;19;20121;-78
2022/07/07 02:35:34;;;;;;;4.57;1.60;;;;;;;;;;7383972;19;20164;-79
2022/07/07 02:37:59;;;;;;;1.83;1.37;;;;;;;;;;7386623;19;20606;-80
2022/07/07 02:40:25;;;;;;;3.97;1.50;;;;;;;;;;7388671;19;20247;-78
2022/07/07 02:42:50;;;;;;;3.47;1.53;;;;;;;;;;7383703;19;20574;-81
2022/07/07 02:45:15;;;;;;;4.00;1.70;;;;;;;;;;7387641;19;20148;-78
2022/07/07 02:47:41;;;;;;;3.87;1.63;;;;;;;;;;7388098;19;20613;-80
2022/07/07 02:50:06;;;;;;;4.13;2.10;;;;;;;;;;7385118;19;20281;-80
2022/07/07 02:52:31;;;;;;;4.33;1.93;;;;;;;;;;7386482;19;20208;-79
2022/07/07 02:54:57;;;;;;;4.60;1.90;;;;;;;;;;7386490;19;20140;-79
2022/07/07 02:57:22;;;;;;;3.60;1.80;;;;;;;;;;7388227;19;20121;-78
2022/07/07 02:59:47;;;;;;;2.30;1.80;;;;;;;;;;7386511;19;20148;-80
2022/07/07 03:02:15;;;;;;;2.80;1.60;;;;;;;;;;7386439;19;20522;-79
2022/07/07 03:04:42;;;;;;;2.53;1.83;;;;;;;;;;7387501;19;20251;-84
2022/07/07 03:07:07;;;;;;;3.77;1.70;;;;;;;;;;7387742;19;20450;-78
2022/07/07 03:09:33;;;;;;;2.30;1.70;;;;;;;;;;7387949;19;20144;-78
2022/07/07 03:11:58;;;;;;;2.33;1.70;;;;;;;;;;7390403;19;20177;-78
2022/07/07 03:14:24;;;;;;;3.03;1.60;;;;;;;;;;7389262;19;20144;-78
2022/07/07 03:16:50;;;;;;;5.20;1.90;;;;;;;;;;7387556;19;20128;-79
2022/07/07 03:19:15;;;;;;;3.23;1.60;;;;;;;;;;7382009;19;20637;-82
2022/07/07 03:21:41;;;;;;;3.00;1.50;;;;;;;;;;7389878;19;20145;-78
2022/07/07 03:24:06;;;;;;;4.80;1.97;;;;;;;;;;7390110;19;20671;-79
2022/07/07 03:26:31;;;;;;;2.33;1.60;;;;;;;;;;7391344;19;21537;-78
2022/07/07 03:28:56;;;;;;;4.03;1.80;;;;;;;;;;7391179;19;20152;-78
2022/07/07 03:31:23;;;;;;;4.57;2.00;;;;;;;;;;7389082;19;20631;-82
2022/07/07 03:33:48;;;;;;;4.60;2.13;;;;;;;;;;7387570;19;20210;-84
2022/07/07 03:36:13;;;;;;;3.57;1.77;;;;;;;;;;7385436;19;20636;-78
2022/07/07 03:38:39;;;;;;;4.63;2.20;;;;;;;;;;7383921;19;20636;-78
2022/07/07 03:41:05;;;;;;;5.03;2.03;;;;;;;;;;7384281;19;20615;-79
2022/07/07 03:43:30;;;;;;;4.03;1.70;;;;;;;;;;7389918;19;20124;-80
2022/07/07 03:45:55;;;;;;;2.87;1.90;;;;;;;;;;7392375;19;20531;-78
2022/07/07 03:48:20;;;;;;;3.13;2.00;;;;;;;;;;7393567;19;20174;-78
2022/07/07 03:50:46;;;;;;;2.17;1.83;;;;;;;;;;7400785;19;20155;-83
2022/07/07 03:53:11;;;;;;;6.10;2.20;;;;;;;;;;7407547;19;20161;-82
2022/07/07 03:55:36;;;;;;;2.53;1.77;;;;;;;;;;7412537;19;20510;-81
2022/07/07 03:58:02;;;;;;;3.00;1.70;;;;;;;;;;7391503;19;20133;-84
2022/07/07 04:00:27;;;;;;;3.47;2.20;;;;;;;;;;7383251;19;20168;-80
2022/07/07 04:02:53;;;;;;;3.63;1.97;;;;;;;;;;7383606;19;20636;-78
2022/07/07 04:05:18;;;;;;;2.63;1.90;;;;;;;;;;7384641;19;20121;-80
2022/07/07 04:07:45;;;;;;;3.70;1.90;;;;;;;;;;7377748;19;20527;-81
2022/07/07 04:10:10;;;;;;;3.53;2.00;;;;;;;;;;7384393;19;20187;-78
2022/07/07 04:12:36;;;;;;;3.07;1.97;;;;;;;;;;7384998;19;20145;-80
2022/07/07 04:15:01;;;;;;;3.93;2.53;;;;;;;;;;7383576;19;20658;-78
2022/07/07 04:17:27;;;;;;;4.00;2.70;;;;;;;;;;7387046;19;20153;-78
2022/07/07 04:19:52;;;;;;;2.80;2.00;;;;;;;;;;7386781;19;20133;-79
2022/07/07 04:22:17;;;;;;;4.10;2.10;;;;;;;;;;7382147;19;20169;-79
2022/07/07 04:24:43;;;;;;;2.70;1.80;;;;;;;;;;7389292;19;20136;-79
2022/07/07 04:27:09;;;;;;;4.27;1.97;;;;;;;;;;7381555;19;20154;-84
2022/07/07 04:29:34;;;;;;;5.43;2.37;;;;;;;;;;7381729;19;20133;-81
2022/07/07 04:31:59;;;;;;;3.53;1.87;;;;;;;;;;7386136;19;20169;-82
2022/07/07 04:34:25;;;;;;;2.10;1.90;;;;;;;;;;7392976;19;20178;-81
2022/07/07 04:36:51;;;;;;;3.07;2.10;;;;;;;;;;7390685;19;20149;-83
2022/07/07 04:39:17;;;;;;;3.60;2.00;;;;;;;;;;7391931;19;20144;-81
2022/07/07 04:41:42;;;;;;;3.77;2.20;;;;;;;;;;7391686;19;20239;-80
2022/07/07 04:44:07;;;;;;;5.23;2.47;;;;;;;;;;7389052;19;20158;-80
2022/07/07 04:46:33;;;;;;;4.00;1.90;;;;;;;;;;7391936;19;20129;-80
2022/07/07 04:48:58;;;;;;;2.83;2.07;;;;;;;;;;7390367;19;21763;-81
2022/07/07 04:51:23;;;;;;;4.80;2.10;;;;;;;;;;7387596;19;20694;-81
2022/07/07 04:53:49;;;;;;;2.90;1.70;;;;;;;;;;7390296;19;20141;-78
2022/07/07 04:56:14;;;;;;;4.80;1.90;;;;;;;;;;7389431;19;20164;-83
2022/07/07 04:58:41;;;;;;;3.27;1.77;;;;;;;;;;7391277;19;20137;-81
2022/07/07 05:01:07;;;;;;;2.83;1.90;;;;;;;;;;7386135;19;20176;-78
2022/07/07 05:03:32;;;;;;;4.03;1.80;;;;;;;;;;7387113;19;20184;-78
2022/07/07 05:05:57;;;;;;;3.87;2.00;;;;;;;;;;7390084;19;20216;-81
2022/07/07 05:08:23;;;;;;;2.40;1.93;;;;;;;;;;7390790;19;20135;-81
2022/07/07 05:10:48;;;;;;;3.97;2.40;;;;;;;;;;7390904;19;20153;-82
2022/07/07 05:13:13;;;;;;;3.53;1.87;;;;;;;;;;7394810;19;20113;-78
2022/07/07 05:15:39;;;;;;;4.40;1.90;;;;;;;;;;7394755;19;20152;-78
2022/07/07 05:18:04;;;;;;;3.43;2.00;;;;;;;;;;7420089;19;20153;-86
2022/07/07 05:20:29;;;;;;;4.87;1.97;;;;;;;;;;7419570;19;20164;-83
2022/07/07 05:22:55;;;;;;;2.27;2.07;;;;;;;;;;7425699;19;20193;-85
2022/07/07 05:25:20;;;;;;;3.93;1.80;;;;;;;;;;7429994;19;20157;-85
2022/07/07 05:27:45;;;;;;;4.67;1.70;;;;;;;;;;7407172;19;20690;-78
2022/07/07 05:30:12;;;;;;;4.20;2.20;;;;;;;;;;7391919;19;20140;-78
2022/07/07 05:32:37;;;;;;;8.17;2.50;;;;;;;;;;7392885;19;20156;-78
2022/07/07 05:35:03;;;;;;;4.50;2.17;;;;;;;;;;7393735;19;20175;-81
2022/07/07 05:37:28;;;;;;;4.03;1.63;;;;;;;;;;7389521;19;20196;-77
2022/07/07 17:38:03;;;;;;;4.18;1.80;;;;;;;;;;7374728;19;20248;-77
2022/07/07 17:40:29;;;;;;;2.75;1.58;;;;;;;;;;7377426;19;20535;-80
2022/07/07 17:42:55;;;;;;;3.10;1.73;;;;;;;;;;7381312;19;20129;-77
2022/07/07 17:45:22;;;;;;;3.53;1.85;;;;;;;;;;7382066;19;20159;-77
2022/07/07 17:47:48;;;;;;;2.35;1.63;;;;;;;;;;7387023;19;20148;-77
2022/07/07 17:50:13;;;;;;;1.58;1.48;;;;;;;;;;7382066;19;20598;-77
2022/07/07 17:52:38;;;;;;;3.50;1.70;;;;;;;;;;7385669;19;20139;-77
2022/07/07 17:55:05;;;;;;;4.78;1.60;;;;;;;;;;7388765;19;20886;-77
2022/07/07 17:57:30;;;;;;;2.20;1.60;;;;;;;;;;7389160;19;20160;-77
2022/07/07 17:59:55;;;;;;;2.08;1.85;;;;;;;;;;7386750;19;20154;-77
2022/07/07 18:02:21;;;;;;;3.40;1.58;;;;;;;;;;7382744;19;20152;-78
2022/07/07 18:04:46;;;;;;;2.83;2.05;;;;;;;;;;7387883;19;20144;-77
2022/07/07 18:07:11;;;;;;;4.15;1.70;;;;;;;;;;7386877;19;20594;-78
2022/07/07 18:09:36;;;;;;;2.05;1.75;;;;;;;;;;7388039;19;20125;-78
2022/07/07 18:12:02;;;;;;;2.78;2.00;;;;;;;;;;7379499;19;20631;-77
2022/07/07 18:14:29;;;;;;;1.95;1.60;;;;;;;;;;7362422;19;20140;-77
2022/07/07 18:16:54;;;;;;;2.60;1.70;;;;;;;;;;7383939;19;20140;-77
2022/07/07 18:19:20;;;;;;;3.35;1.50;;;;;;;;;;7384406;19;20149;-77
2022/07/07 18:21:45;;;;;;;5.15;1.63;;;;;;;;;;7383990;19;20152;-77
2022/07/07 18:24:11;;;;;;;3.15;1.77;;;;;;;;;;7378364;19;20148;-77
2022/07/07 18:26:37;;;;;;;4.38;3.03;;;;;;;;;;7386317;19;20180;-76
2022/07/07 18:29:03;;;;;;;3.13;1.80;;;;;;;;;;7381533;19;20125;-77
2022/07/07 18:31:28;;;;;;;2.13;1.75;;;;;;;;;;7383230;19;20676;-76
2022/07/07 18:33:54;;;;;;;1.67;1.42;;;;;;;;;;7389723;19;20156;-77
2022/07/07 18:36:20;;;;;;;3.03;1.55;;;;;;;;;;7379046;19;20141;-77
2022/07/07 18:38:46;;;;;;;3.55;1.92;;;;;;;;;;7386954;19;20159;-77
2022/07/07 18:41:12;;;;;;;5.10;1.80;;;;;;;;;;7386098;19;20191;-77
2022/07/07 18:43:37;;;;;;;2.08;1.50;;;;;;;;;;7382266;19;20129;-77
2022/07/07 18:46:03;;;;;;;1.67;1.55;;;;;;;;;;7380884;19;20127;-77
2022/07/07 18:48:28;;;;;;;2.45;1.55;;;;;;;;;;7385746;19;20216;-76
2022/07/07 18:50:54;;;;;;;2.42;1.60;;;;;;;;;;7383821;19;20173;-75
2022/07/07 18:53:19;;;;;;;3.80;2.08;;;;;;;;;;7388230;19;20204;-76
2022/07/07 18:55:45;;;;;;;1.83;1.40;;;;;;;;;;7379670;19;20153;-77
2022/07/07 18:58:11;;;;;;;3.25;1.48;;;;;;;;;;7378833;19;20556;-77
2022/07/07 19:00:36;;;;;;;1.90;1.40;;;;;;;;;;7379999;19;20195;-77
2022/07/07 19:03:02;;;;;;;2.80;1.50;;;;;;;;;;7383453;19;20148;-78
2022/07/07 19:05:27;;;;;;;1.90;1.48;;;;;;;;;;7387030;19;20153;-77
2022/07/07 19:07:52;;;;;;;1.42;1.30;;;;;;;;;;7384097;19;20146;-77
2022/07/07 19:10:18;;;;;;;1.98;1.30;;;;;;;;;;7388200;19;20168;-77
2022/07/07 19:12:43;;;;;;;2.35;1.40;;;;;;;;;;7386991;19;20160;-77
2022/07/07 19:15:09;;;;;;;5.22;1.70;;;;;;;;;;7385804;19;20156;-77
2022/07/07 19:17:35;;;;;;;1.85;1.40;;;;;;;;;;7382956;19;20651;-78
2022/07/07 19:20:03;;;;;;;1.80;1.40;;;;;;;;;;7384675;19;20133;-77
2022/07/07 19:22:29;;;;;;;2.60;1.40;;;;;;;;;;7386914;19;20129;-78
2022/07/07 19:24:54;;;;;;;1.42;1.33;;;;;;;;;;7375443;19;20136;-79
2022/07/07 19:27:20;;;;;;;2.15;1.20;;;;;;;;;;7375391;19;20204;-77
2022/07/07 19:29:45;;;;;;;1.30;1.20;;;;;;;;;;7384441;19;20132;-78
2022/07/07 19:32:12;;;;;;;2.28;1.60;;;;;;;;;;7379554;19;20181;-77
2022/07/07 19:34:37;;;;;;;1.40;1.30;;;;;;;;;;7384519;19;20179;-77
2022/07/07 19:37:03;;;;;;;2.40;1.30;;;;;;;;;;7363201;19;20148;-77
2022/07/07 19:39:30;;;;;;;1.60;1.40;;;;;;;;;;7368179;19;20439;-77
2022/07/07 19:41:55;;;;;;;2.22;1.20;;;;;;;;;;7368226;19;20631;-77
2022/07/07 19:44:21;;;;;;;2.00;1.50;;;;;;;;;;7386031;19;20145;-76
2022/07/07 19:46:46;;;;;;;1.50;1.40;;;;;;;;;;7377677;19;20221;-76
2022/07/07 19:49:12;;;;;;;3.17;1.50;;;;;;;;;;7377112;19;20156;-78
2022/07/07 19:51:39;;;;;;;1.90;1.60;;;;;;;;;;7377268;19;20213;-76
2022/07/07 19:54:05;;;;;;;5.32;1.40;;;;;;;;;;7383472;19;20168;-76
2022/07/07 19:56:30;;;;;;;2.88;1.50;;;;;;;;;;7386036;19;20137;-77
2022/07/07 19:58:56;;;;;;;2.55;1.42;;;;;;;;;;7375404;19;20152;-78
2022/07/07 20:01:21;;;;;;;4.22;1.50;;;;;;;;;;7369794;19;20199;-76
2022/07/07 20:03:47;;;;;;;1.58;1.48;;;;;;;;;;7382402;19;20452;-77
2022/07/07 20:06:13;;;;;;;6.68;1.73;;;;;;;;;;7375600;19;20133;-78
2022/07/07 20:08:38;;;;;;;3.42;1.27;;;;;;;;;;7382992;19;20228;-76
2022/07/07 20:11:03;;;;;;;2.15;1.60;;;;;;;;;;7380455;19;20730;-76
2022/07/07 20:13:30;;;;;;;1.85;1.50;;;;;;;;;;7385124;19;20446;-77
2022/07/07 20:15:56;;;;;;;2.85;1.52;;;;;;;;;;7385285;19;20181;-77
2022/07/07 20:18:26;;;;;;;1.40;1.30;;;;;;;;;;7383938;19;20147;-77
2022/07/07 20:20:52;;;;;;;1.92;1.35;;;;;;;;;;7375585;19;20172;-77
2022/07/07 20:23:21;;;;;;;1.45;1.23;;;;;;;;;;7376873;19;20128;-77
2022/07/07 20:25:46;;;;;;;3.15;1.30;;;;;;;;;;7374962;19;20137;-77
2022/07/07 20:28:11;;;;;;;4.40;1.50;;;;;;;;;;7381208;19;20538;-78
2022/07/07 20:30:37;;;;;;;1.38;1.27;;;;;;;;;;7381940;19;20665;-76
2022/07/07 20:33:02;;;;;;;3.38;1.40;;;;;;;;;;7377112;19;20121;-77
2022/07/07 20:35:27;;;;;;;3.15;1.30;;;;;;;;;;7381784;19;20261;-78
2022/07/07 20:37:52;;;;;;;1.80;1.10;;;;;;;;;;7381284;19;20137;-77
2022/07/07 20:40:18;;;;;;;1.58;1.40;;;;;;;;;;7382823;19;20157;-76
2022/07/07 20:42:43;;;;;;;2.22;1.40;;;;;;;;;;7381911;19;20140;-78
2022/07/07 20:45:09;;;;;;;2.65;1.58;;;;;;;;;;7381919;19;20159;-77
2022/07/07 20:47:39;;;;;;;1.58;1.35;;;;;;;;;;7376611;19;20516;-76
2022/07/07 20:50:05;;;;;;;5.40;3.88;;;;;;;;;;7378971;19;20132;-78
2022/07/07 20:52:31;;;;;;;4.22;3.78;;;;;;;;;;7381921;19;20146;-78
2022/07/07 20:54:57;;;;;;;2.33;1.67;;;;;;;;;;7382733;19;20121;-77
2022/07/07 20:57:22;;;;;;;2.92;1.35;;;;;;;;;;7374212;19;20121;-78
2022/07/07 20:59:47;;;;;;;3.42;1.55;;;;;;;;;;7379385;19;20136;-78
2022/07/07 21:02:14;;;;;;;1.48;1.35;;;;;;;;;;7382183;19;20174;-77
2022/07/07 21:04:40;;;;;;;2.15;1.38;;;;;;;;;;7378004;19;20137;-77
2022/07/07 21:07:05;;;;;;;1.27;1.17;;;;;;;;;;7380930;19;20231;-78
2022/07/07 21:09:32;;;;;;;2.30;1.13;;;;;;;;;;7375926;19;20479;-78
2022/07/07 21:11:57;;;;;;;2.25;1.35;;;;;;;;;;7379574;19;20524;-78
2022/07/07 21:14:23;;;;;;;1.45;1.20;;;;;;;;;;7389022;19;20523;-78
2022/07/07 21:16:49;;;;;;;1.85;1.40;;;;;;;;;;7386936;19;20180;-78
2022/07/07 21:19:15;;;;;;;3.30;1.20;;;;;;;;;;7386273;19;20168;-78
2022/07/07 21:21:41;;;;;;;2.20;1.35;;;;;;;;;;7386351;19;20183;-78
2022/07/07 21:24:06;;;;;;;2.85;1.60;;;;;;;;;;7389892;19;20117;-75
2022/07/07 21:26:32;;;;;;;3.07;1.30;;;;;;;;;;7382252;19;20702;-75
2022/07/07 21:28:57;;;;;;;1.70;1.35;;;;;;;;;;7368951;19;20159;-78
2022/07/07 21:31:22;;;;;;;1.40;1.30;;;;;;;;;;7376466;19;20157;-76
2022/07/07 21:33:47;;;;;;;1.52;1.25;;;;;;;;;;7384876;19;20138;-76
2022/07/07 21:36:13;;;;;;;2.35;1.50;;;;;;;;;;7386893;19;20137;-76
2022/07/07 21:38:38;;;;;;;1.40;1.23;;;;;;;;;;7385926;19;20125;-78
2022/07/07 21:41:04;;;;;;;1.70;1.23;;;;;;;;;;7389785;19;20149;-79
2022/07/07 21:43:29;;;;;;;1.77;1.30;;;;;;;;;;7385838;19;20186;-78
2022/07/07 21:45:56;;;;;;;1.30;1.20;;;;;;;;;;7388008;19;20628;-76
2022/07/07 21:48:25;;;;;;;1.40;1.30;;;;;;;;;;7384878;19;20204;-77
2022/07/07 21:50:53;;;;;;;1.70;1.60;;;;;;;;;;7379262;19;20524;-77
2022/07/07 21:53:19;;;;;;;2.05;1.80;;;;;;;;;;7388181;19;20166;-80
2022/07/07 21:55:45;;;;;;;2.55;1.40;;;;;;;;;;7387218;19;20151;-76
2022/07/07 21:58:10;;;;;;;1.10;1.10;;;;;;;;;;7391336;19;20156;-76
2022/07/07 22:00:36;;;;;;;1.95;1.30;;;;;;;;;;7401665;19;20141;-77
2022/07/07 22:03:01;;;;;;;2.08;1.20;;;;;;;;;;7410442;19;20345;-77
2022/07/07 22:08:10;;;;;;;2.17;1.90;;;;;;;;;;7401790;19;20124;-77
2022/07/07 22:10:36;;;;;;;1.90;1.48;;;;;;;;;;7392566;19;20137;-76
2022/07/07 22:13:02;;;;;;;3.35;1.35;;;;;;;;;;7374272;19;20121;-76
2022/07/07 22:15:27;;;;;;;2.73;1.70;;;;;;;;;;7372185;19;20153;-78
2022/07/07 22:17:52;;;;;;;1.52;1.42;;;;;;;;;;7380134;19;20538;-78
2022/07/07 22:20:17;;;;;;;3.90;1.60;;;;;;;;;;7373796;19;20946;-78
2022/07/07 22:22:43;;;;;;;2.20;1.50;;;;;;;;;;7376940;19;20141;-77
2022/07/07 22:25:08;;;;;;;2.42;1.52;;;;;;;;;;7381017;19;20129;-78
2022/07/07 22:27:34;;;;;;;1.63;1.40;;;;;;;;;;7376747;19;20148;-78
2022/07/07 22:29:59;;;;;;;3.15;1.52;;;;;;;;;;7388055;19;20132;-77
2022/07/07 22:32:25;;;;;;;1.48;1.38;;;;;;;;;;7384669;19;20638;-78
2022/07/07 22:34:50;;;;;;;2.85;1.40;;;;;;;;;;7376563;19;20160;-77
2022/07/07 22:37:15;;;;;;;2.00;1.50;;;;;;;;;;7387109;19;20522;-77
2022/07/07 22:39:40;;;;;;;3.13;1.60;;;;;;;;;;7373503;19;20640;-78
2022/07/07 22:42:06;;;;;;;2.40;1.70;;;;;;;;;;7368158;19;20213;-78
2022/07/07 22:44:31;;;;;;;1.50;1.40;;;;;;;;;;7375327;19;20146;-77
2022/07/07 22:46:57;;;;;;;1.63;1.53;;;;;;;;;;7357373;19;20141;-77
2022/07/07 22:49:23;;;;;;;1.77;1.67;;;;;;;;;;7381244;19;20160;-77
2022/07/07 22:51:48;;;;;;;1.60;1.50;;;;;;;;;;7360505;19;20149;-77
2022/07/07 22:54:14;;;;;;;1.50;1.40;;;;;;;;;;7373693;19;20140;-77
2022/07/07 22:56:39;;;;;;;3.37;1.60;;;;;;;;;;7359877;19;20153;-77
2022/07/07 22:59:05;;;;;;;2.07;1.60;;;;;;;;;;7356504;19;20184;-77
2022/07/07 23:01:31;;;;;;;3.53;1.50;;;;;;;;;;7373181;19;20172;-77
2022/07/07 23:03:56;;;;;;;1.77;1.63;;;;;;;;;;7377519;19;20129;-77
2022/07/07 23:06:21;;;;;;;3.20;2.07;;;;;;;;;;7373319;19;20144;-78
2022/07/07 23:08:47;;;;;;;2.00;1.90;;;;;;;;;;7367853;19;20129;-77
2022/07/07 23:11:12;;;;;;;3.27;1.73;;;;;;;;;;7367037;19;20157;-78
2022/07/07 23:13:37;;;;;;;1.60;1.43;;;;;;;;;;7373374;19;20477;-77
2022/07/07 23:16:03;;;;;;;3.67;1.90;;;;;;;;;;7372639;19;20147;-77
2022/07/07 23:18:28;;;;;;;3.13;1.63;;;;;;;;;;7375682;19;20113;-78
2022/07/07 23:20:54;;;;;;;2.43;1.80;;;;;;;;;;7366141;19;20172;-77
2022/07/07 23:23:19;;;;;;;2.80;1.90;;;;;;;;;;7360984;19;20784;-78
2022/07/07 23:25:44;;;;;;;1.63;1.53;;;;;;;;;;7370883;19;20618;-78
2022/07/07 23:28:10;;;;;;;2.73;1.60;;;;;;;;;;7374659;19;20133;-76
2022/07/07 23:30:35;;;;;;;1.77;1.67;;;;;;;;;;7379193;19;20251;-77
2022/07/07 23:33:00;;;;;;;1.90;1.80;;;;;;;;;;7371900;19;20155;-77
2022/07/07 23:35:26;;;;;;;3.60;1.70;;;;;;;;;;7381985;19;20121;-76
2022/07/07 23:37:51;;;;;;;1.93;1.83;;;;;;;;;;7381507;19;20132;-78
2022/07/07 23:40:16;;;;;;;2.00;1.80;;;;;;;;;;7361089;19;20156;-77
2022/07/07 23:42:42;;;;;;;1.80;1.70;;;;;;;;;;7371681;19;20148;-77
2022/07/07 23:45:07;;;;;;;2.00;1.80;;;;;;;;;;7370927;19;20476;-79
2022/07/07 23:47:33;;;;;;;3.17;1.80;;;;;;;;;;7375351;19;20136;-76
2022/07/07 23:49:58;;;;;;;1.90;1.80;;;;;;;;;;7370862;19;20117;-77
2022/07/07 23:52:23;;;;;;;2.50;1.90;;;;;;;;;;7368136;19;20129;-77
2022/07/07 23:54:49;;;;;;;1.73;1.60;;;;;;;;;;7375474;19;20196;-76
2022/07/07 23:57:14;;;;;;;1.90;1.57;;;;;;;;;;7371400;19;20121;-77
2022/07/07 23:59:39;;;;;;;2.43;1.80;;;;;;;;;;7381279;19;20658;-77
